Time;durP1;ratioP1;P1;durP2;ratioP2;P2;SDS_P1;SDS_P2;PMS_P1;PMS_P2;Temp;Humidity;BMP_temperature;BMP_pressure;BME280_temperature;BME280_humidity;BME280_pressure;Samples;Min_cycle;Max_cycle;Signal;HPM_P1;HPM_P2
2021/03/18 00:01:23;;;;;;;38.90;11.70;;;;;;;1.37;73.88;99449.78;1814725;78;21547;-75
2021/03/18 00:03:52;;;;;;;63.35;11.80;;;;;;;1.37;73.89;99451.51;1824997;78;21578;-69
2021/03/18 00:06:20;;;;;;;53.65;12.15;;;;;;;1.35;73.83;99452.83;1824980;78;20886;-69
2021/03/18 00:08:50;;;;;;;54.50;12.82;;;;;;;1.34;73.80;99454.56;1825005;78;20909;-71
2021/03/18 00:11:21;;;;;;;57.95;13.35;;;;;;;1.30;73.75;99445.27;1825037;78;21347;-70
2021/03/18 00:13:49;;;;;;;51.20;13.03;;;;;;;1.28;73.76;99451.31;1824521;78;20957;-72
2021/03/18 00:16:18;;;;;;;41.48;11.50;;;;;;;1.27;73.77;99455.61;1824443;78;20911;-71
2021/03/18 00:18:51;;;;;;;53.58;12.58;;;;;;;1.27;73.76;99456.05;1824433;78;20941;-70
2021/03/18 00:21:20;;;;;;;46.02;12.93;;;;;;;1.26;73.75;99453.08;1824568;78;20913;-74
2021/03/18 00:23:50;;;;;;;51.42;12.95;;;;;;;1.23;73.70;99450.16;1824451;78;21352;-71
2021/03/18 00:26:23;;;;;;;43.83;13.28;;;;;;;1.21;73.66;99449.80;1824400;78;20930;-67
2021/03/18 00:28:52;;;;;;;45.25;13.95;;;;;;;1.17;73.74;99452.08;1824413;77;20954;-66
2021/03/18 00:31:26;;;;;;;40.12;14.10;;;;;;;1.15;73.77;99446.98;1824393;78;20933;-66
2021/03/18 00:33:55;;;;;;;43.38;12.53;;;;;;;1.11;73.98;99442.83;1824524;78;20969;-67
2021/03/18 00:36:23;;;;;;;45.43;15.58;;;;;;;1.09;74.24;99441.19;1824547;78;21240;-67
2021/03/18 00:38:52;;;;;;;43.70;13.50;;;;;;;1.08;74.32;99443.34;1824371;78;21216;-67
2021/03/18 00:41:20;;;;;;;43.33;13.95;;;;;;;1.05;74.43;99448.55;1824434;78;21479;-69
2021/03/18 00:43:49;;;;;;;63.05;17.65;;;;;;;1.01;74.56;99447.80;1824396;78;20926;-71
2021/03/18 00:46:21;;;;;;;70.50;21.52;;;;;;;0.97;74.62;99441.91;1824438;78;21515;-67
2021/03/18 00:48:48;;;;;;;49.42;19.00;;;;;;;0.94;74.74;99450.95;1824407;78;22232;-68
2021/03/18 00:51:17;;;;;;;65.70;20.32;;;;;;;0.94;74.89;99446.27;1824363;78;20949;-74
2021/03/18 00:53:48;;;;;;;67.65;19.67;;;;;;;0.95;75.01;99446.23;1824368;78;21487;-66
2021/03/18 00:56:20;;;;;;;57.98;18.12;;;;;;;0.96;74.99;99443.23;1824206;78;20917;-66
2021/03/18 00:58:50;;;;;;;52.80;17.10;;;;;;;0.98;75.05;99450.00;1824325;78;21454;-66
2021/03/18 01:01:23;;;;;;;51.92;15.98;;;;;;;1.00;75.18;99445.67;1823290;78;21469;-66
2021/03/18 01:03:52;;;;;;;58.05;17.07;;;;;;;1.01;75.21;99442.67;1806663;79;21579;-67
2021/03/18 01:06:24;;;;;;;65.75;19.35;;;;;;;1.03;75.26;99442.19;1806609;79;20930;-67
2021/03/18 01:08:53;;;;;;;57.88;19.70;;;;;;;1.04;75.23;99439.18;1806611;79;20998;-67
2021/03/18 01:11:33;;;;;;;60.33;20.20;;;;;;;1.05;75.26;99435.73;1806685;78;21017;-70
2021/03/18 01:14:05;;;;;;;65.87;21.52;;;;;;;1.06;75.32;99436.98;1806658;79;21189;-73
2021/03/18 01:16:47;;;;;;;63.23;21.62;;;;;;;1.09;75.29;99428.36;1806520;79;21005;-69
2021/03/18 01:19:16;;;;;;;61.20;23.98;;;;;;;1.12;75.22;99432.97;1806993;78;20996;-67
2021/03/18 01:21:48;;;;;;;82.00;28.92;;;;;;;1.14;75.14;99424.80;1807468;79;20982;-74
2021/03/18 01:24:16;;;;;;;62.50;23.55;;;;;;;1.15;75.03;99429.05;1808983;79;21381;-67
2021/03/18 01:26:44;;;;;;;64.80;23.50;;;;;;;1.16;74.93;99431.16;1807015;78;21363;-67
2021/03/18 01:29:13;;;;;;;71.67;24.27;;;;;;;1.16;74.87;99431.16;1806496;79;21397;-66
2021/03/18 01:31:42;;;;;;;67.80;20.40;;;;;;;1.13;74.85;99432.09;1806605;79;20918;-65
2021/03/18 01:34:11;;;;;;;54.67;21.45;;;;;;;1.12;74.97;99435.98;1806569;79;20907;-69
2021/03/18 01:36:39;;;;;;;61.58;18.52;;;;;;;1.08;75.08;99432.65;1806606;79;21329;-65
2021/03/18 01:39:08;;;;;;;53.75;16.75;;;;;;;1.06;75.09;99429.29;1806589;78;21360;-66
2021/03/18 01:41:36;;;;;;;50.80;16.02;;;;;;;1.02;75.11;99435.38;1806515;79;21563;-74
2021/03/18 01:44:05;;;;;;;54.38;15.10;;;;;;;0.96;75.31;99431.69;1806581;79;20990;-74
2021/03/18 01:46:34;;;;;;;52.08;16.50;;;;;;;0.92;75.58;99430.09;1806641;79;20994;-74
2021/03/18 01:49:04;;;;;;;57.20;18.75;;;;;;;0.86;75.74;99433.66;1806590;79;21420;-73
2021/03/18 01:51:32;;;;;;;49.98;17.75;;;;;;;0.83;75.94;99429.89;1806600;79;21555;-72
2021/03/18 01:54:03;;;;;;;44.40;16.77;;;;;;;0.82;76.01;99429.92;1806500;79;21435;-74
2021/03/18 01:56:31;;;;;;;46.58;14.95;;;;;;;0.78;76.16;99427.91;1806610;78;20922;-75
2021/03/18 01:58:59;;;;;;;42.88;15.63;;;;;;;0.77;76.30;99432.64;1806581;79;20922;-67
2021/03/18 02:01:27;;;;;;;44.70;15.28;;;;;;;0.74;76.37;99431.88;1806579;79;20934;-75
2021/03/18 02:03:57;;;;;;;53.30;15.23;;;;;;;0.73;76.51;99435.31;1824252;77;21027;-71
2021/03/18 02:06:27;;;;;;;56.30;15.55;;;;;;;0.71;76.59;99432.79;1824341;78;20894;-67
2021/03/18 02:08:56;;;;;;;61.83;15.48;;;;;;;0.70;76.70;99434.95;1824292;78;20930;-70
2021/03/18 02:11:24;;;;;;;50.10;15.00;;;;;;;0.71;76.81;99434.52;1824333;77;20938;-70
2021/03/18 02:13:53;;;;;;;58.13;16.07;;;;;;;0.74;76.92;99436.56;1824596;78;21023;-72
2021/03/18 02:16:21;;;;;;;43.35;17.12;;;;;;;0.76;76.95;99435.23;1825543;77;22290;-75
2021/03/18 02:19:05;;;;;;;40.43;15.88;;;;;;;0.79;76.94;99432.16;1824259;78;20902;-73
2021/03/18 02:22:17;;;;;;;47.25;18.07;;;;;;;0.82;76.93;99438.45;1824329;78;20989;-70
2021/03/18 02:25:06;;;;;;;61.80;19.12;;;;;;;0.87;76.93;99437.05;1824329;78;20985;-73
2021/03/18 02:28:17;;;;;;;48.40;16.97;;;;;;;0.90;76.97;99431.41;1824004;78;21013;-66
2021/03/18 02:31:03;;;;;;;52.27;17.30;;;;;;;0.93;76.95;99433.89;1773706;78;21270;-66
2021/03/18 02:34:06;;;;;;;56.45;15.28;;;;;;;0.98;76.85;99442.75;1824359;77;20901;-66
2021/03/18 02:36:44;;;;;;;51.02;14.35;;;;;;;0.99;76.90;99444.43;1824325;78;21563;-67
2021/03/18 02:39:21;;;;;;;46.23;16.12;;;;;;;1.00;77.01;99443.11;1824279;78;21039;-74
2021/03/18 02:41:51;;;;;;;52.58;16.23;;;;;;;1.00;76.89;99447.39;1823962;78;20924;-68
2021/03/18 02:44:24;;;;;;;43.60;14.47;;;;;;;1.00;77.01;99449.95;1824339;78;21209;-65
2021/03/18 02:47:05;;;;;;;65.47;25.35;;;;;;;1.00;77.12;99449.95;1824274;78;21020;-66
2021/03/18 02:49:36;;;;;;;58.23;18.07;;;;;;;1.01;77.15;99443.95;1824354;78;20997;-65
2021/03/18 02:52:04;;;;;;;52.38;17.75;;;;;;;1.04;77.15;99445.59;1824296;78;20989;-66
2021/03/18 02:54:33;;;;;;;44.73;18.92;;;;;;;1.05;77.18;99449.84;1824260;78;21040;-65
2021/03/18 02:57:03;;;;;;;51.18;16.77;;;;;;;1.08;77.20;99445.91;1824316;78;22148;-65
2021/03/18 02:59:36;;;;;;;47.10;16.20;;;;;;;1.09;77.17;99454.84;1824240;78;20984;-71
2021/03/18 03:02:06;;;;;;;50.50;17.27;;;;;;;1.13;77.17;99446.63;1823206;78;20953;-66
2021/03/18 03:04:39;;;;;;;62.30;19.95;;;;;;;1.15;77.05;99449.55;1807576;79;20974;-66
2021/03/18 03:07:08;;;;;;;40.78;17.35;;;;;;;1.18;77.00;99449.91;1806630;79;20954;-65
2021/03/18 03:09:36;;;;;;;60.17;19.90;;;;;;;1.18;77.03;99464.86;1806520;79;21189;-66
2021/03/18 03:12:05;;;;;;;64.42;19.60;;;;;;;1.20;77.01;99464.81;1806494;79;21397;-67
2021/03/18 03:14:33;;;;;;;49.23;15.75;;;;;;;1.20;77.07;99460.50;1806541;79;20993;-66
2021/03/18 03:17:04;;;;;;;39.63;15.08;;;;;;;1.21;77.10;99453.20;1806522;79;21583;-66
2021/03/18 03:19:40;;;;;;;46.50;15.60;;;;;;;1.22;77.14;99457.45;1806567;79;21005;-67
2021/03/18 03:22:09;;;;;;;47.23;14.45;;;;;;;1.24;77.14;99457.41;1806790;79;21325;-66
2021/03/18 03:24:38;;;;;;;37.45;14.13;;;;;;;1.26;77.25;99464.62;1806451;79;20942;-74
2021/03/18 03:27:06;;;;;;;39.35;13.28;;;;;;;1.26;77.32;99456.48;1806550;79;21523;-70
2021/03/18 03:29:35;;;;;;;46.45;13.83;;;;;;;1.26;77.35;99456.92;1806487;79;21376;-70
2021/03/18 03:32:04;;;;;;;47.35;13.72;;;;;;;1.27;77.38;99467.14;1764815;80;21044;-72
2021/03/18 03:34:33;;;;;;;52.40;13.68;;;;;;;1.28;77.44;99466.70;1763032;79;21197;-72
2021/03/18 03:37:02;;;;;;;39.27;13.60;;;;;;;1.29;77.57;99473.52;1762953;79;21009;-70
2021/03/18 03:39:30;;;;;;;35.55;13.28;;;;;;;1.32;77.66;99472.16;1752250;82;21487;-72
2021/03/18 03:41:58;;;;;;;41.58;12.88;;;;;;;1.36;77.73;99463.94;1806492;79;20998;-72
2021/03/18 03:44:27;;;;;;;46.05;12.95;;;;;;;1.36;77.74;99467.78;1806462;79;20915;-74
2021/03/18 03:46:57;;;;;;;38.40;15.85;;;;;;;1.36;77.82;99466.05;1806539;79;21432;-71
2021/03/18 03:49:26;;;;;;;54.88;17.62;;;;;;;1.37;77.79;99461.33;1806592;78;21005;-68
2021/03/18 03:52:00;;;;;;;58.25;22.42;;;;;;;1.40;77.68;99464.25;1806842;79;20982;-69
2021/03/18 03:54:29;;;;;;;52.13;18.52;;;;;;;1.42;77.63;99461.20;1806746;79;20930;-68
2021/03/18 03:57:24;;;;;;;51.13;17.27;;;;;;;1.42;77.49;99463.33;1806670;79;21018;-68
2021/03/18 03:59:56;;;;;;;46.20;15.43;;;;;;;1.41;77.42;99457.80;1806665;79;21255;-68
2021/03/18 04:02:26;;;;;;;53.98;17.90;;;;;;;1.43;77.25;99464.16;1806545;78;21436;-68
2021/03/18 04:04:55;;;;;;;65.05;23.87;;;;;;;1.42;77.20;99462.48;1806672;79;20965;-69
2021/03/18 04:07:35;;;;;;;48.45;18.55;;;;;;;1.41;77.16;99464.65;1806568;79;20978;-68
2021/03/18 04:10:06;;;;;;;59.60;18.77;;;;;;;1.41;77.08;99462.08;1806702;79;20938;-68
2021/03/18 04:12:38;;;;;;;66.77;19.05;;;;;;;1.43;77.10;99461.60;1806615;79;21233;-68
2021/03/18 04:15:09;;;;;;;52.75;18.92;;;;;;;1.44;76.94;99465.41;1806419;79;21425;-68
2021/03/18 04:17:40;;;;;;;71.90;22.22;;;;;;;1.45;76.91;99463.24;1806703;79;20938;-68
2021/03/18 04:20:12;;;;;;;61.70;22.20;;;;;;;1.46;76.93;99464.08;1806627;79;21475;-68
2021/03/18 04:22:41;;;;;;;58.80;23.40;;;;;;;1.44;76.96;99465.41;1806725;79;21460;-68
2021/03/18 04:25:12;;;;;;;59.20;18.60;;;;;;;1.41;77.06;99473.19;1806658;79;21355;-68
2021/03/18 04:27:40;;;;;;;61.08;17.60;;;;;;;1.40;77.26;99466.38;1806601;79;20946;-72
2021/03/18 04:30:12;;;;;;;43.70;14.93;;;;;;;1.44;77.50;99472.26;1806615;78;20919;-69
2021/03/18 04:32:43;;;;;;;46.65;13.95;;;;;;;1.47;77.56;99473.46;1806609;79;21025;-73
2021/03/18 04:35:15;;;;;;;35.88;14.13;;;;;;;1.48;77.55;99473.42;1806769;79;20994;-72
2021/03/18 04:37:43;;;;;;;45.55;15.95;;;;;;;1.45;77.62;99467.53;1806601;79;21193;-65
2021/03/18 04:40:14;;;;;;;39.83;13.22;;;;;;;1.44;77.74;99468.41;1807152;79;21500;-68
2021/03/18 04:42:43;;;;;;;47.62;12.85;;;;;;;1.46;77.78;99473.06;1807825;79;21480;-66
2021/03/18 04:45:12;;;;;;;44.00;12.53;;;;;;;1.50;77.71;99481.08;1806676;79;21026;-67
2021/03/18 04:47:42;;;;;;;30.77;11.35;;;;;;;1.51;77.62;99478.91;1806668;79;20926;-72
2021/03/18 04:50:13;;;;;;;45.85;12.80;;;;;;;1.55;77.68;99474.09;1806636;79;21189;-75
2021/03/18 04:52:42;;;;;;;39.75;11.05;;;;;;;1.60;77.57;99476.89;1806630;79;20938;-75
2021/03/18 04:55:12;;;;;;;44.45;12.47;;;;;;;1.64;77.44;99477.65;1806614;78;20910;-75
2021/03/18 04:57:43;;;;;;;49.98;12.93;;;;;;;1.67;77.25;99478.41;1806763;79;20938;-76
2021/03/18 05:00:15;;;;;;;62.93;11.85;;;;;;;1.68;77.11;99478.80;1806944;79;20926;-72
2021/03/18 05:02:46;;;;;;;45.33;12.50;;;;;;;1.70;77.00;99481.33;1785271;79;22220;-72
2021/03/18 05:05:19;;;;;;;59.80;26.42;;;;;;;1.74;76.97;99476.50;1806615;79;20993;-69
2021/03/18 05:07:50;;;;;;;126.60;57.43;;;;;;;1.77;76.89;99479.43;1806807;79;21081;-66
2021/03/18 05:10:22;;;;;;;128.62;53.85;;;;;;;1.81;76.84;99478.45;1806734;79;21353;-71
2021/03/18 05:12:51;;;;;;;78.50;29.63;;;;;;;1.85;76.78;99478.77;1806674;79;20930;-70
2021/03/18 05:15:19;;;;;;;60.65;18.07;;;;;;;1.88;76.54;99473.09;1806601;79;21295;-71
2021/03/18 05:17:48;;;;;;;52.90;17.05;;;;;;;1.92;76.49;99484.96;1806554;79;21389;-76
2021/03/18 05:20:19;;;;;;;42.30;14.80;;;;;;;1.93;76.29;99489.21;1806719;79;21428;-67
2021/03/18 05:22:48;;;;;;;35.40;13.13;;;;;;;1.95;76.11;99491.29;1806607;79;21587;-68
2021/03/18 05:25:20;;;;;;;56.92;15.28;;;;;;;1.96;75.84;99494.26;1806661;79;21396;-68
2021/03/18 05:27:48;;;;;;;45.88;14.38;;;;;;;1.99;76.02;99494.17;1806666;79;21184;-66
2021/03/18 05:30:17;;;;;;;47.65;16.55;;;;;;;2.01;75.71;99495.38;1807764;79;20989;-66
2021/03/18 05:32:46;;;;;;;46.98;11.83;;;;;;;2.02;75.81;99498.34;1807223;79;21432;-67
2021/03/18 05:35:16;;;;;;;31.05;12.45;;;;;;;2.06;75.72;99508.08;1803362;79;20977;-71
2021/03/18 05:37:44;;;;;;;45.60;16.17;;;;;;;2.09;75.65;99505.42;1806600;79;21550;-78
2021/03/18 05:40:15;;;;;;;45.65;14.90;;;;;;;2.12;75.71;99511.75;1806613;79;22366;-66
2021/03/18 05:42:48;;;;;;;31.95;12.78;;;;;;;2.16;75.53;99521.05;1806524;79;21019;-67
2021/03/18 05:45:18;;;;;;;35.28;14.05;;;;;;;2.18;75.20;99516.27;1806699;78;21073;-75
2021/03/18 05:47:46;;;;;;;53.52;15.13;;;;;;;2.19;75.10;99523.08;1806562;79;21022;-72
2021/03/18 05:50:20;;;;;;;44.65;16.50;;;;;;;2.22;75.05;99524.27;1794240;78;21006;-70
2021/03/18 05:52:49;;;;;;;57.80;17.52;;;;;;;2.24;74.94;99520.37;1785568;79;21129;-66
2021/03/18 05:55:20;;;;;;;44.98;16.32;;;;;;;2.26;74.83;99521.17;1789764;78;21049;-65
2021/03/18 05:57:50;;;;;;;42.78;16.85;;;;;;;2.30;74.78;99524.89;1782810;79;21096;-66
2021/03/18 06:00:20;;;;;;;51.50;14.78;;;;;;;2.32;74.55;99522.27;1785777;78;21017;-65
2021/03/18 06:02:51;;;;;;;42.85;12.70;;;;;;;2.33;74.71;99523.95;1788951;79;20978;-67
2021/03/18 06:05:21;;;;;;;58.80;13.53;;;;;;;2.39;74.69;99525.50;1782229;78;21297;-66
2021/03/18 06:07:51;;;;;;;55.03;14.20;;;;;;;2.45;74.48;99521.42;1780871;79;20985;-71
2021/03/18 06:10:22;;;;;;;42.67;12.80;;;;;;;2.49;74.24;99520.45;1779696;78;21574;-67
2021/03/18 06:12:53;;;;;;;40.60;12.70;;;;;;;2.54;74.19;99523.27;1809402;77;21009;-69
2021/03/18 06:15:23;;;;;;;28.30;10.70;;;;;;;2.59;73.94;99520.56;1789888;78;21045;-69
2021/03/18 06:17:53;;;;;;;46.68;11.63;;;;;;;2.63;73.52;99522.14;1782628;78;21368;-71
2021/03/18 06:20:28;;;;;;;41.92;10.70;;;;;;;2.66;73.37;99517.75;1782076;78;21017;-68
2021/03/18 06:23:05;;;;;;;38.13;10.60;;;;;;;2.70;73.20;99526.64;1746625;81;21124;-66
2021/03/18 06:25:37;;;;;;;48.17;12.90;;;;;;;2.76;73.21;99525.16;1732086;80;21013;-75
2021/03/18 06:28:22;;;;;;;43.80;13.22;;;;;;;2.86;72.92;99523.95;1794056;77;21053;-70
2021/03/18 06:31:14;;;;;;;58.95;12.00;;;;;;;2.92;72.71;99520.73;1724025;81;21842;-74
2021/03/18 06:33:47;;;;;;;55.92;14.28;;;;;;;3.00;72.26;99521.33;1734775;82;21016;-71
2021/03/18 06:36:32;;;;;;;57.75;14.63;;;;;;;3.07;71.35;99523.25;1738564;82;21045;-73
2021/03/18 06:39:15;;;;;;;78.33;27.87;;;;;;;3.09;71.03;99523.20;1787660;78;21017;-72
2021/03/18 06:41:48;;;;;;;149.30;59.40;;;;;;;3.10;70.78;99532.60;1776727;79;21006;-70
2021/03/18 06:44:30;;;;;;;104.92;40.67;;;;;;;3.12;70.40;99530.38;1784445;79;21211;-72
2021/03/18 06:47:10;;;;;;;63.40;27.58;;;;;;;3.12;70.36;99527.80;1787857;77;21073;-69
2021/03/18 06:49:39;;;;;;;52.00;22.22;;;;;;;3.13;70.58;99528.20;1786934;79;20883;-69
2021/03/18 06:52:10;;;;;;;58.25;20.60;;;;;;;3.16;70.93;99530.66;1726792;81;21021;-71
2021/03/18 06:54:42;;;;;;;47.58;23.22;;;;;;;3.22;71.20;99529.59;1737150;81;20946;-70
2021/03/18 06:57:11;;;;;;;46.48;17.62;;;;;;;3.25;71.12;99527.75;1730893;82;21194;-74
2021/03/18 06:59:42;;;;;;;43.73;16.93;;;;;;;3.29;71.23;99528.48;1786822;79;21021;-72
2021/03/18 07:02:16;;;;;;;27.30;12.55;;;;;;;3.34;71.38;99533.03;1789369;79;21682;-69
2021/03/18 07:04:52;;;;;;;26.55;10.88;;;;;;;3.39;71.52;99531.14;1792244;78;21056;-66
2021/03/18 07:07:26;;;;;;;33.65;11.50;;;;;;;3.45;71.30;99533.51;1791331;78;20990;-73
2021/03/18 07:09:55;;;;;;;36.80;11.45;;;;;;;3.50;71.16;99533.34;1805394;78;22293;-69
2021/03/18 07:12:31;;;;;;;31.60;12.10;;;;;;;3.53;71.25;99531.95;1803693;78;20993;-70
2021/03/18 07:15:02;;;;;;;28.67;11.70;;;;;;;3.57;71.41;99531.80;1802188;78;21128;-67
2021/03/18 07:17:36;;;;;;;33.98;13.75;;;;;;;3.64;71.46;99534.96;1799028;78;21614;-65
2021/03/18 07:20:21;;;;;;;31.10;11.50;;;;;;;3.67;71.14;99533.56;1791270;78;21123;-69
2021/03/18 07:22:53;;;;;;;35.48;12.18;;;;;;;3.71;70.93;99535.14;1789215;78;22208;-72
2021/03/18 07:25:24;;;;;;;27.30;11.33;;;;;;;3.76;70.47;99536.27;1790608;78;21083;-67
2021/03/18 07:27:57;;;;;;;31.52;11.43;;;;;;;3.78;70.38;99535.31;1803259;78;21036;-67
2021/03/18 07:30:37;;;;;;;36.70;11.40;;;;;;;3.81;70.44;99537.78;1804926;78;21976;-75
2021/03/18 07:33:05;;;;;;;28.32;12.15;;;;;;;3.86;70.55;99544.89;1793986;78;21049;-72
2021/03/18 07:35:35;;;;;;;37.93;13.95;;;;;;;3.91;70.49;99543.44;1798583;78;21353;-71
2021/03/18 07:38:04;;;;;;;32.42;12.40;;;;;;;3.96;70.48;99546.69;1791827;78;21084;-72
2021/03/18 07:40:33;;;;;;;29.87;12.88;;;;;;;4.01;70.28;99547.33;1790113;78;21613;-72
2021/03/18 07:43:02;;;;;;;42.85;14.13;;;;;;;4.07;70.12;99546.27;1796984;78;21056;-68
2021/03/18 07:45:31;;;;;;;37.67;13.32;;;;;;;4.11;70.02;99543.52;1794528;78;21100;-73
2021/03/18 07:48:00;;;;;;;30.35;12.15;;;;;;;4.14;69.92;99545.98;1793238;77;21658;-66
2021/03/18 07:50:34;;;;;;;45.83;12.58;;;;;;;4.19;69.90;99547.94;1794512;78;21621;-72
2021/03/18 07:53:04;;;;;;;28.27;11.53;;;;;;;4.25;69.79;99550.73;1803024;78;21060;-70
2021/03/18 07:55:33;;;;;;;38.10;12.78;;;;;;;4.30;69.72;99550.95;1811770;77;21065;-75
2021/03/18 07:58:03;;;;;;;52.00;19.48;;;;;;;4.37;69.69;99558.02;1766349;79;21096;-69
2021/03/18 08:00:32;;;;;;;40.30;17.57;;;;;;;4.44;69.63;99554.27;1792563;77;21194;-66
2021/03/18 08:03:27;;;;;;;32.83;13.65;;;;;;;4.50;69.62;99554.03;1797268;78;21020;-76
2021/03/18 08:06:00;;;;;;;32.95;13.32;;;;;;;4.60;69.48;99550.66;1794872;78;21449;-71
2021/03/18 08:08:36;;;;;;;28.80;11.10;;;;;;;4.69;68.85;99555.00;1790604;78;21194;-75
2021/03/18 08:11:11;;;;;;;23.35;10.03;;;;;;;4.78;68.12;99555.55;1806437;77;20992;-72
2021/03/18 08:13:41;;;;;;;14.70;7.87;;;;;;;4.83;67.95;99552.30;1801128;78;21546;-68
2021/03/18 08:16:28;;;;;;;16.62;8.48;;;;;;;4.90;67.89;99557.16;1798921;78;21019;-72
2021/03/18 08:18:57;;;;;;;17.77;8.55;;;;;;;5.00;67.81;99555.05;1722165;78;20976;-75
2021/03/18 08:21:48;;;;;;;23.35;8.78;;;;;;;5.10;67.68;99555.06;1801658;78;21028;-76
2021/03/18 08:24:28;;;;;;;14.33;8.53;;;;;;;5.19;66.99;99549.52;1784874;79;21575;-71
2021/03/18 08:27:03;;;;;;;14.65;6.90;;;;;;;5.27;66.59;99552.59;1783718;79;21280;-69
2021/03/18 08:29:43;;;;;;;13.13;7.90;;;;;;;5.35;66.20;99546.66;1803935;78;21135;-72
2021/03/18 08:32:26;;;;;;;13.58;8.30;;;;;;;5.44;66.04;99550.60;1798001;79;20981;-77
2021/03/18 08:35:00;;;;;;;12.88;7.67;;;;;;;5.51;66.15;99554.60;1785078;79;21163;-79
2021/03/18 08:37:42;;;;;;;13.10;7.47;;;;;;;5.60;66.18;99544.30;1795056;79;21341;-73
2021/03/18 08:40:27;;;;;;;17.60;7.62;;;;;;;5.69;66.00;99552.95;1788720;79;21207;-71
2021/03/18 08:43:02;;;;;;;14.78;7.42;;;;;;;5.77;65.52;99545.70;1794185;79;20990;-70
2021/03/18 08:45:35;;;;;;;13.50;8.03;;;;;;;5.84;65.24;99548.41;1782317;79;21590;-74
2021/03/18 08:48:23;;;;;;;15.65;8.38;;;;;;;5.91;64.84;99549.00;1790567;78;21052;-74
2021/03/18 08:50:53;;;;;;;14.93;7.67;;;;;;;5.98;64.62;99553.84;1727311;82;20953;-73
2021/03/18 08:53:35;;;;;;;10.58;7.10;;;;;;;6.03;64.39;99555.73;1761146;81;21211;-67
2021/03/18 08:56:04;;;;;;;11.95;7.10;;;;;;;6.10;64.53;99556.75;1744505;80;21079;-68
2021/03/18 08:58:45;;;;;;;15.18;7.45;;;;;;;6.17;64.22;99550.39;1753498;80;21060;-69
2021/03/18 09:01:17;;;;;;;17.67;7.53;;;;;;;6.25;64.02;99553.47;1755523;80;21048;-73
2021/03/18 09:03:56;;;;;;;10.63;8.10;;;;;;;6.32;64.27;99554.42;1710992;82;21052;-72
2021/03/18 09:06:27;;;;;;;16.15;6.80;;;;;;;6.43;64.09;99548.72;1763920;80;22259;-71
2021/03/18 09:08:57;;;;;;;15.23;6.75;;;;;;;6.53;63.24;99547.38;1753732;79;21115;-72
2021/03/18 09:11:27;;;;;;;17.80;6.50;;;;;;;6.63;62.57;99552.52;1744032;79;21026;-76
2021/03/18 09:13:55;;;;;;;11.28;6.40;;;;;;;6.72;62.22;99554.28;1749625;81;21726;-74
2021/03/18 09:16:24;;;;;;;14.73;6.83;;;;;;;6.82;62.25;99555.49;1751146;79;20992;-65
2021/03/18 09:18:59;;;;;;;14.65;7.25;;;;;;;6.93;62.21;99555.81;1765750;80;21381;-72
2021/03/18 09:21:38;;;;;;;11.00;6.10;;;;;;;7.06;61.98;99559.94;1775910;80;21487;-69
2021/03/18 09:24:10;;;;;;;12.10;6.22;;;;;;;7.16;60.87;99556.00;1770948;80;21012;-66
2021/03/18 09:26:40;;;;;;;12.88;6.62;;;;;;;7.13;60.28;99559.57;1760936;80;21084;-67
2021/03/18 09:29:09;;;;;;;16.65;7.55;;;;;;;7.08;60.66;99558.13;1757689;80;21088;-70
2021/03/18 09:31:37;;;;;;;11.70;6.15;;;;;;;7.12;60.68;99562.23;1756265;79;21377;-65
2021/03/18 09:34:06;;;;;;;10.53;5.83;;;;;;;7.14;60.19;99558.66;1752376;79;21059;-70
2021/03/18 09:36:35;;;;;;;11.60;7.00;;;;;;;7.16;60.37;99542.59;1751321;80;21044;-70
2021/03/18 09:39:13;;;;;;;13.50;6.67;;;;;;;7.26;60.72;99550.71;1750863;80;21109;-66
2021/03/18 09:41:46;;;;;;;12.10;6.42;;;;;;;7.35;60.10;99550.25;1754611;79;21079;-70
2021/03/18 09:44:22;;;;;;;11.43;7.40;;;;;;;7.39;59.19;99545.76;1753233;81;21871;-69
2021/03/18 09:46:56;;;;;;;14.33;7.60;;;;;;;7.38;58.13;99550.56;1750411;81;20992;-67
2021/03/18 09:49:36;;;;;;;13.22;7.30;;;;;;;7.23;58.49;99553.45;1761017;80;21016;-66
2021/03/18 09:52:14;;;;;;;10.80;7.37;;;;;;;7.09;59.33;99554.16;1767904;80;20910;-68
2021/03/18 09:54:43;;;;;;;14.53;8.03;;;;;;;7.05;59.74;99546.16;1740056;80;21013;-68
2021/03/18 09:57:12;;;;;;;10.58;6.65;;;;;;;7.13;60.38;99544.49;1754466;80;21380;-72
2021/03/18 09:59:40;;;;;;;7.72;5.53;;;;;;;7.29;59.99;99541.04;1761877;80;21581;-76
2021/03/18 10:02:09;;;;;;;11.63;5.70;;;;;;;7.44;59.50;99546.36;1752099;80;21639;-73
2021/03/18 10:04:46;;;;;;;13.58;5.17;;;;;;;7.50;58.56;99548.64;1752243;81;21185;-69
2021/03/18 10:07:13;;;;;;;10.80;5.75;;;;;;;7.51;57.87;99545.98;1750584;80;21123;-78
2021/03/18 10:09:49;;;;;;;9.55;6.87;;;;;;;7.49;57.57;99548.27;1748056;80;21111;-69
2021/03/18 10:12:24;;;;;;;11.00;5.75;;;;;;;7.49;58.22;99544.37;1757410;80;21045;-72
2021/03/18 10:15:01;;;;;;;8.90;5.37;;;;;;;7.55;58.06;99546.20;1740475;80;21072;-69
2021/03/18 10:17:41;;;;;;;11.83;5.90;;;;;;;7.67;58.03;99544.25;1744900;80;21610;-72
2021/03/18 10:20:29;;;;;;;9.50;5.42;;;;;;;7.74;56.70;99540.89;1743290;80;21052;-73
2021/03/18 10:23:14;;;;;;;15.58;4.87;;;;;;;7.71;56.29;99539.75;1742622;80;21435;-75
2021/03/18 10:25:41;;;;;;;10.82;5.10;;;;;;;7.68;56.09;99535.56;1746597;80;21035;-74
2021/03/18 10:28:14;;;;;;;9.63;4.30;;;;;;;7.64;55.62;99535.34;1742202;80;21062;-72
2021/03/18 10:30:48;;;;;;;6.95;4.12;;;;;;;7.58;55.32;99543.91;1760912;80;20980;-72
2021/03/18 10:33:20;;;;;;;16.32;5.28;;;;;;;7.54;55.45;99547.12;1749314;80;21057;-67
2021/03/18 10:35:57;;;;;;;7.83;4.97;;;;;;;7.52;55.53;99542.47;1745113;80;21220;-68
2021/03/18 10:38:42;;;;;;;9.98;4.35;;;;;;;7.53;55.44;99545.90;1752333;80;21127;-73
2021/03/18 10:41:29;;;;;;;9.28;4.50;;;;;;;7.51;54.61;99546.44;1751747;80;21024;-70
2021/03/18 10:43:57;;;;;;;9.25;5.22;;;;;;;7.49;55.09;99544.37;1740560;80;21022;-74
2021/03/18 10:46:30;;;;;;;8.35;5.42;;;;;;;7.52;55.46;99546.36;1752196;80;21132;-74
2021/03/18 10:48:59;;;;;;;6.78;4.50;;;;;;;7.55;55.00;99546.66;1747829;80;21209;-72
2021/03/18 10:51:31;;;;;;;15.85;5.37;;;;;;;7.52;54.91;99544.23;1755048;79;21068;-73
2021/03/18 10:54:04;;;;;;;12.98;5.12;;;;;;;7.41;54.99;99540.88;1764811;79;21084;-67
2021/03/18 10:56:33;;;;;;;7.03;4.45;;;;;;;7.34;55.87;99545.53;1758931;79;21052;-76
2021/03/18 10:59:18;;;;;;;6.78;4.45;;;;;;;7.36;55.39;99549.34;1764311;80;20941;-70
2021/03/18 11:01:48;;;;;;;12.37;5.03;;;;;;;7.40;55.63;99544.84;1722498;82;21383;-67
2021/03/18 11:04:18;;;;;;;9.65;5.37;;;;;;;7.48;55.83;99544.84;1721836;80;21103;-73
2021/03/18 11:06:51;;;;;;;7.83;5.17;;;;;;;7.56;56.00;99544.45;1755894;79;21115;-71
2021/03/18 11:09:22;;;;;;;10.20;4.78;;;;;;;7.63;56.18;99546.62;1758116;80;21039;-76
2021/03/18 11:12:00;;;;;;;11.08;5.25;;;;;;;7.74;56.82;99539.59;1750450;79;21601;-77
2021/03/18 11:14:31;;;;;;;8.83;4.87;;;;;;;7.86;56.68;99537.66;1751070;80;22153;-79
2021/03/18 11:17:04;;;;;;;10.48;4.95;;;;;;;8.00;56.75;99538.20;1764370;81;21091;-72
2021/03/18 11:19:34;;;;;;;7.75;4.95;;;;;;;8.12;56.82;99538.01;1766609;81;21030;-74
2021/03/18 11:22:04;;;;;;;7.87;4.95;;;;;;;8.19;55.04;99539.35;1759954;81;21071;-67
2021/03/18 11:24:33;;;;;;;6.80;4.47;;;;;;;8.19;55.53;99535.00;1750377;81;22215;-73
2021/03/18 11:27:03;;;;;;;6.53;4.25;;;;;;;8.24;55.44;99534.30;1755352;81;21613;-80
2021/03/18 11:29:34;;;;;;;10.03;4.72;;;;;;;8.31;55.14;99533.51;1763221;81;21044;-79
2021/03/18 11:32:06;;;;;;;7.62;4.60;;;;;;;8.36;54.48;99536.72;1756564;81;21604;-78
2021/03/18 11:34:37;;;;;;;8.50;4.33;;;;;;;8.30;54.13;99537.02;1739855;81;21428;-74
2021/03/18 11:37:08;;;;;;;10.35;4.28;;;;;;;8.19;54.12;99531.58;1715815;81;21676;-74
2021/03/18 11:39:37;;;;;;;6.62;4.53;;;;;;;8.11;54.40;99529.85;1751777;81;21128;-78
2021/03/18 11:42:05;;;;;;;11.83;4.95;;;;;;;8.07;54.48;99528.34;1754109;79;21636;-81
2021/03/18 11:44:35;;;;;;;9.33;5.10;;;;;;;8.03;53.96;99528.50;1751245;79;21162;-75
2021/03/18 11:47:05;;;;;;;8.83;4.03;;;;;;;7.98;53.62;99524.51;1753395;80;21038;-79
2021/03/18 11:49:35;;;;;;;5.53;4.42;;;;;;;7.85;53.40;99528.20;1751273;81;21285;-77
2021/03/18 11:52:05;;;;;;;9.43;4.83;;;;;;;7.70;53.41;99527.25;1760691;80;21217;-67
2021/03/18 11:54:34;;;;;;;9.05;4.40;;;;;;;7.59;53.93;99531.34;1751300;80;22429;-77